Time;durP1;ratioP1;P1;durP2;ratioP2;P2;SDS_P1;SDS_P2;PMS_P1;PMS_P2;Temp;Humidity;BMP_temperature;BMP_pressure;BME280_temperature;BME280_humidity;BME280_pressure;Samples;Min_cycle;Max_cycle;Signal;HPM_P1;HPM_P2
2023/03/06 00:00:47;;;;;;;6.90;2.05;;;2.00;99.90;;;;;;5075231;28;20044;-42
2023/03/06 00:03:12;;;;;;;5.68;1.45;;;2.10;99.90;;;;;;5075247;28;20059;-37
2023/03/06 00:05:38;;;;;;;7.90;1.60;;;2.10;99.90;;;;;;5060568;28;20052;-40
2023/03/06 00:08:04;;;;;;;7.75;1.52;;;2.20;99.90;;;;;;5075609;28;20083;-43
2023/03/06 00:10:31;;;;;;;7.00;1.73;;;2.20;99.90;;;;;;5074173;28;20131;-44
2023/03/06 00:13:00;;;;;;;5.30;1.50;;;2.20;99.90;;;;;;5064292;28;20052;-39
2023/03/06 00:15:27;;;;;;;4.68;1.40;;;2.20;99.90;;;;;;5071747;28;20048;-39
2023/03/06 00:17:53;;;;;;;6.57;1.60;;;2.30;99.90;;;;;;5075085;28;20399;-46
2023/03/06 00:20:19;;;;;;;5.07;1.30;;;2.40;99.90;;;;;;5074214;28;20181;-43
2023/03/06 00:22:46;;;;;;;4.60;1.40;;;2.40;99.90;;;;;;5074842;28;20501;-40
2023/03/06 00:25:16;;;;;;;8.65;1.38;;;2.40;99.90;;;;;;5073798;28;20153;-41
2023/03/06 00:27:42;;;;;;;4.35;1.63;;;2.40;99.90;;;;;;5074144;28;20055;-44
2023/03/06 00:30:11;;;;;;;6.10;1.40;;;2.50;99.90;;;;;;5073949;28;20048;-39
2023/03/06 00:32:36;;;;;;;5.22;1.23;;;2.50;99.90;;;;;;5074963;28;20047;-39
2023/03/06 00:35:03;;;;;;;5.13;1.30;;;2.60;99.90;;;;;;5074021;28;20546;-43
2023/03/06 00:37:28;;;;;;;3.97;1.52;;;2.70;99.90;;;;;;5050822;28;20052;-42
2023/03/06 00:39:54;;;;;;;7.15;1.30;;;2.70;99.90;;;;;;5039184;28;20061;-39
2023/03/06 00:42:20;;;;;;;2.95;1.02;;;2.70;99.90;;;;;;5064463;28;20050;-40
2023/03/06 00:44:46;;;;;;;5.75;2.03;;;2.70;99.90;;;;;;5074061;28;20083;-41
2023/03/06 00:47:12;;;;;;;6.85;1.38;;;2.70;99.90;;;;;;5072457;28;20132;-43
2023/03/06 00:49:38;;;;;;;3.97;1.35;;;2.80;99.90;;;;;;5073273;28;20658;-43
2023/03/06 00:52:04;;;;;;;7.80;1.40;;;2.80;99.90;;;;;;5066164;28;20151;-48
2023/03/06 00:54:30;;;;;;;5.82;1.38;;;2.90;99.90;;;;;;5050741;28;20192;-42
2023/03/06 00:56:55;;;;;;;5.03;1.58;;;2.90;99.90;;;;;;5048697;28;20041;-41
2023/03/06 00:59:21;;;;;;;5.82;1.45;;;2.90;99.90;;;;;;5052746;28;20097;-44
2023/03/06 01:01:47;;;;;;;4.13;1.42;;;2.90;99.90;;;;;;5053529;28;20127;-40
2023/03/06 01:04:13;;;;;;;6.88;1.67;;;2.90;99.90;;;;;;5057237;28;20067;-42
2023/03/06 01:06:39;;;;;;;7.05;1.40;;;3.00;99.90;;;;;;5074060;28;20563;-42
2023/03/06 01:09:05;;;;;;;4.15;1.63;;;3.00;99.90;;;;;;5073706;28;20059;-43
2023/03/06 01:11:31;;;;;;;4.43;1.50;;;3.00;99.90;;;;;;5072637;28;20494;-43
2023/03/06 01:13:57;;;;;;;8.80;1.90;;;3.00;99.90;;;;;;5073122;28;20060;-42
2023/03/06 01:16:23;;;;;;;5.13;1.73;;;3.00;99.90;;;;;;5072318;28;20490;-40
2023/03/06 01:18:49;;;;;;;4.53;1.55;;;3.00;99.90;;;;;;5072822;28;20074;-37
2023/03/06 01:21:15;;;;;;;4.00;1.70;;;3.00;99.90;;;;;;5073780;28;20201;-37
2023/03/06 01:23:40;;;;;;;6.05;1.70;;;3.00;99.90;;;;;;5067568;28;20428;-39
2023/03/06 01:26:06;;;;;;;10.38;1.98;;;3.00;99.90;;;;;;5053876;28;20052;-40
2023/03/06 01:28:33;;;;;;;7.10;1.70;;;2.90;99.90;;;;;;5058756;28;20533;-46
2023/03/06 01:31:00;;;;;;;5.60;1.80;;;3.00;99.90;;;;;;5074172;28;20055;-42
2023/03/06 01:33:26;;;;;;;5.13;1.55;;;3.00;99.90;;;;;;5073180;28;20462;-41
2023/03/06 01:35:52;;;;;;;6.20;2.17;;;3.00;99.90;;;;;;5073187;28;20147;-42
2023/03/06 01:38:18;;;;;;;5.82;2.08;;;2.90;99.90;;;;;;5035877;28;20045;-42
2023/03/06 01:40:44;;;;;;;10.07;2.22;;;3.00;99.90;;;;;;5054776;28;20044;-40
2023/03/06 01:43:23;;;;;;;6.63;2.03;;;3.00;99.90;;;;;;5073436;28;20146;-36
2023/03/06 01:45:48;;;;;;;7.95;2.30;;;3.00;99.90;;;;;;5073407;28;20320;-43
2023/03/06 01:48:20;;;;;;;7.90;2.30;;;3.00;99.90;;;;;;5059948;28;20056;-42
2023/03/06 01:50:45;;;;;;;4.22;1.85;;;3.00;99.90;;;;;;5060276;28;20059;-45
2023/03/06 01:53:13;;;;;;;6.25;2.42;;;3.10;99.90;;;;;;5057085;28;20311;-36
2023/03/06 01:55:38;;;;;;;9.13;2.65;;;3.10;99.90;;;;;;5051789;28;20436;-46
2023/03/06 01:58:11;;;;;;;5.97;2.00;;;3.10;99.90;;;;;;5057559;28;20125;-43
2023/03/06 02:00:37;;;;;;;4.72;1.77;;;3.10;99.90;;;;;;5058366;28;20047;-44
2023/03/06 02:03:10;;;;;;;2.45;1.40;;;3.10;99.90;;;;;;5057795;28;20522;-40
2023/03/06 02:05:36;;;;;;;3.60;1.30;;;3.00;99.90;;;;;;5055480;28;20566;-46
2023/03/06 02:08:04;;;;;;;2.78;1.00;;;3.00;99.90;;;;;;5065991;28;20425;-39
2023/03/06 02:10:30;;;;;;;3.15;0.93;;;3.00;99.90;;;;;;5077921;28;20048;-40
2023/03/06 02:12:56;;;;;;;3.75;1.00;;;2.90;99.90;;;;;;5077387;28;20113;-40
2023/03/06 02:15:23;;;;;;;0.95;0.70;;;2.90;99.90;;;;;;5077147;28;20044;-39
2023/03/06 02:17:51;;;;;;;5.35;0.70;;;3.00;99.90;;;;;;5077059;28;20580;-45
2023/03/06 02:20:38;;;;;;;1.58;0.50;;;2.80;99.90;;;;;;5076106;28;20051;-44
2023/03/06 02:23:12;;;;;;;0.30;0.30;;;2.80;99.90;;;;;;5078050;28;20056;-43
2023/03/06 02:25:44;;;;;;;2.88;0.60;;;2.70;99.90;;;;;;5043724;28;20048;-42
2023/03/06 02:28:13;;;;;;;0.52;0.40;;;2.70;99.90;;;;;;5057491;28;20139;-44
2023/03/06 02:30:41;;;;;;;2.40;0.60;;;2.60;99.90;;;;;;5077433;28;20552;-44
2023/03/06 02:33:09;;;;;;;1.85;0.50;;;2.50;99.90;;;;;;5075191;28;20414;-41
2023/03/06 02:35:37;;;;;;;1.67;0.57;;;2.50;99.90;;;;;;5065590;28;20418;-43
2023/03/06 02:38:08;;;;;;;3.22;0.65;;;2.50;99.90;;;;;;5058769;28;20472;-40
2023/03/06 02:40:34;;;;;;;1.25;0.57;;;2.50;99.90;;;;;;5054384;28;20047;-39
2023/03/06 02:43:00;;;;;;;2.28;0.80;;;2.40;99.90;;;;;;5075289;28;20049;-46
2023/03/06 02:45:38;;;;;;;1.88;0.90;;;2.40;99.90;;;;;;5066525;28;20467;-43
2023/03/06 02:48:08;;;;;;;1.58;0.90;;;2.40;99.90;;;;;;5075195;28;20216;-45
2023/03/06 02:50:34;;;;;;;1.73;0.65;;;2.30;99.90;;;;;;5075956;28;20048;-39
2023/03/06 02:52:59;;;;;;;1.20;0.82;;;2.20;99.90;;;;;;5067205;28;20048;-41
2023/03/06 02:55:25;;;;;;;1.00;0.77;;;2.30;99.90;;;;;;5069001;28;20562;-43
2023/03/06 02:57:50;;;;;;;1.83;0.80;;;2.20;99.90;;;;;;5055651;28;20098;-39
2023/03/06 03:00:18;;;;;;;1.60;0.80;;;2.10;99.90;;;;;;5053482;28;20056;-44
2023/03/06 03:02:44;;;;;;;1.63;0.65;;;2.10;99.90;;;;;;5053363;28;20110;-35
2023/03/06 03:05:10;;;;;;;2.78;1.00;;;2.20;99.90;;;;;;5054356;28;20050;-45
2023/03/06 03:07:35;;;;;;;1.00;0.88;;;2.20;99.90;;;;;;5055044;28;20841;-44
2023/03/06 03:10:02;;;;;;;1.20;0.90;;;2.10;99.90;;;;;;5055348;28;20044;-41
2023/03/06 03:12:27;;;;;;;1.90;1.00;;;2.20;99.90;;;;;;5055397;28;20059;-39
2023/03/06 03:14:54;;;;;;;1.92;0.70;;;2.10;99.90;;;;;;5067411;28;20044;-38
2023/03/06 03:17:21;;;;;;;3.50;1.13;;;2.10;99.90;;;;;;5075842;28;20048;-38
2023/03/06 03:19:47;;;;;;;3.00;1.10;;;2.10;99.90;;;;;;5075050;28;20044;-39
2023/03/06 03:22:13;;;;;;;3.13;0.90;;;2.00;99.90;;;;;;5075394;28;20048;-36
2023/03/06 03:24:38;;;;;;;3.85;0.93;;;1.90;99.90;;;;;;5075452;28;20101;-43
2023/03/06 03:27:05;;;;;;;1.92;1.17;;;1.90;99.90;;;;;;5074175;28;20485;-41
2023/03/06 03:29:31;;;;;;;1.80;1.33;;;1.90;99.90;;;;;;5075924;28;20044;-39
2023/03/06 03:31:57;;;;;;;1.58;0.77;;;1.90;99.90;;;;;;5075632;28;20051;-37
2023/03/06 03:34:22;;;;;;;1.42;0.90;;;1.90;99.90;;;;;;5075745;28;20413;-40
2023/03/06 03:36:48;;;;;;;1.23;1.00;;;1.90;99.90;;;;;;5075324;28;20048;-42
2023/03/06 03:39:14;;;;;;;1.77;0.70;;;1.90;99.90;;;;;;5050384;28;20102;-38
2023/03/06 03:41:40;;;;;;;1.10;0.85;;;1.90;99.90;;;;;;5072288;28;20450;-39
2023/03/06 03:44:06;;;;;;;4.05;0.98;;;1.90;99.90;;;;;;5075270;28;20193;-39
2023/03/06 03:46:31;;;;;;;1.20;0.80;;;2.00;99.90;;;;;;5075158;28;20052;-43
2023/03/06 03:48:57;;;;;;;1.30;0.80;;;2.00;99.90;;;;;;5074531;28;20044;-35
2023/03/06 03:51:23;;;;;;;2.35;0.80;;;2.00;99.90;;;;;;5075124;28;20382;-36
2023/03/06 03:53:49;;;;;;;1.25;0.73;;;2.00;99.90;;;;;;5063982;28;20108;-36
2023/03/06 03:56:14;;;;;;;3.05;1.17;;;1.90;99.90;;;;;;5059507;28;20057;-41
2023/03/06 03:58:40;;;;;;;2.03;1.45;;;1.80;99.90;;;;;;5054412;28;20076;-42
2023/03/06 04:01:06;;;;;;;2.50;1.33;;;1.80;99.90;;;;;;5073966;28;20052;-41
2023/03/06 04:03:32;;;;;;;4.07;1.65;;;1.80;99.90;;;;;;5060911;28;20036;-38
2023/03/06 04:05:59;;;;;;;2.10;1.40;;;1.90;99.90;;;;;;5074203;28;20426;-36
2023/03/06 04:08:25;;;;;;;2.50;1.50;;;1.80;99.90;;;;;;5074384;28;20080;-39
2023/03/06 04:10:51;;;;;;;1.67;1.20;;;1.70;99.90;;;;;;5065409;28;20052;-43
2023/03/06 04:13:21;;;;;;;4.30;1.20;;;1.80;99.90;;;;;;5054468;28;20056;-39
2023/03/06 04:15:48;;;;;;;2.88;1.20;;;1.90;99.90;;;;;;5054613;28;20082;-44
2023/03/06 04:18:17;;;;;;;2.42;1.20;;;1.80;99.90;;;;;;5053318;28;20609;-39
2023/03/06 04:20:44;;;;;;;1.70;1.10;;;1.80;99.90;;;;;;5053830;28;20498;-39
2023/03/06 04:23:10;;;;;;;1.40;1.00;;;1.80;99.90;;;;;;5053449;28;20044;-38
2023/03/06 04:25:36;;;;;;;2.15;1.27;;;1.90;99.90;;;;;;5054802;28;20522;-41
2023/03/06 04:28:02;;;;;;;2.20;0.93;;;1.80;99.90;;;;;;5052418;28;20564;-41
2023/03/06 04:30:28;;;;;;;1.45;1.00;;;1.90;99.90;;;;;;5053985;28;20051;-36
2023/03/06 04:32:53;;;;;;;1.90;0.90;;;1.90;99.90;;;;;;5053546;28;20056;-36
2023/03/06 04:35:19;;;;;;;1.65;1.05;;;1.80;99.90;;;;;;5053891;28;20394;-41
2023/03/06 04:37:45;;;;;;;1.63;0.80;;;1.90;99.90;;;;;;5039598;28;20410;-43
2023/03/06 04:40:27;;;;;;;2.80;1.10;;;1.80;99.90;;;;;;5047252;28;20412;-41
2023/03/06 04:42:57;;;;;;;2.90;1.05;;;1.70;99.90;;;;;;5074485;28;20146;-38
2023/03/06 04:45:23;;;;;;;3.15;0.93;;;1.70;99.90;;;;;;5073889;28;20071;-41
2023/03/06 04:47:49;;;;;;;2.22;1.05;;;1.70;99.90;;;;;;5060243;28;20048;-43
2023/03/06 04:50:16;;;;;;;4.25;1.65;;;1.70;99.90;;;;;;5074188;28;20101;-42
2023/03/06 04:52:42;;;;;;;3.00;1.10;;;1.70;99.90;;;;;;5059521;28;20049;-45
2023/03/06 04:55:11;;;;;;;1.73;1.02;;;1.80;99.90;;;;;;5052908;28;20048;-42
2023/03/06 04:57:38;;;;;;;4.07;1.20;;;1.80;99.90;;;;;;5050298;28;20117;-44
2023/03/06 05:00:08;;;;;;;1.20;0.90;;;1.80;99.90;;;;;;5053411;28;20052;-42
2023/03/06 05:02:35;;;;;;;1.42;1.20;;;1.80;99.90;;;;;;5049875;28;20556;-43
2023/03/06 05:05:01;;;;;;;1.70;1.15;;;1.80;99.90;;;;;;5052664;28;20048;-39
2023/03/06 05:07:27;;;;;;;3.58;1.00;;;1.90;99.90;;;;;;5057059;28;20492;-39
2023/03/06 05:09:52;;;;;;;1.30;0.80;;;1.90;99.90;;;;;;5073592;28;20054;-42
2023/03/06 05:12:18;;;;;;;2.40;1.52;;;1.80;99.90;;;;;;5073719;28;20044;-37
2023/03/06 05:14:44;;;;;;;2.00;1.20;;;1.80;99.90;;;;;;5072834;28;20055;-36
2023/03/06 05:17:10;;;;;;;2.42;1.20;;;1.80;99.90;;;;;;5073882;28;20043;-39
2023/03/06 05:19:35;;;;;;;2.22;1.20;;;1.90;99.90;;;;;;5073223;28;20109;-46
2023/03/06 05:22:01;;;;;;;1.45;1.02;;;1.90;99.90;;;;;;5072306;28;20594;-43
2023/03/06 05:24:26;;;;;;;3.05;1.20;;;1.80;99.90;;;;;;5073157;28;20643;-40
2023/03/06 05:26:52;;;;;;;2.70;1.38;;;1.80;99.90;;;;;;5073121;28;20048;-40
2023/03/06 05:29:18;;;;;;;2.15;1.30;;;1.80;99.90;;;;;;5072024;28;20059;-40
2023/03/06 05:31:44;;;;;;;2.63;1.52;;;1.70;99.90;;;;;;5073363;28;20040;-36
2023/03/06 05:34:14;;;;;;;2.53;1.50;;;1.80;99.90;;;;;;5072766;28;20047;-40
2023/03/06 05:36:40;;;;;;;3.20;1.75;;;1.70;99.90;;;;;;5063205;28;20051;-36
2023/03/06 05:39:06;;;;;;;4.30;1.33;;;1.60;99.90;;;;;;5034040;28;20045;-44
2023/03/06 05:41:31;;;;;;;2.40;1.25;;;1.60;99.90;;;;;;5068259;28;20044;-45
2023/03/06 05:43:57;;;;;;;2.30;1.40;;;1.50;99.90;;;;;;5072433;28;20059;-40
2023/03/06 05:46:23;;;;;;;4.07;1.45;;;1.40;99.90;;;;;;5059496;28;20044;-41
2023/03/06 05:48:51;;;;;;;2.47;1.50;;;1.40;99.90;;;;;;5072839;28;20075;-43
2023/03/06 05:51:17;;;;;;;2.50;1.60;;;1.30;99.90;;;;;;5073008;28;20048;-44
2023/03/06 05:53:43;;;;;;;2.30;1.52;;;1.20;99.90;;;;;;5062803;28;20413;-45
2023/03/06 05:56:09;;;;;;;1.98;1.60;;;1.20;99.90;;;;;;5050252;28;20056;-46
2023/03/06 05:58:35;;;;;;;5.63;1.92;;;1.10;99.90;;;;;;5065383;28;20083;-39
2023/03/06 06:01:11;;;;;;;3.03;1.60;;;1.10;99.90;;;;;;5073764;28;20048;-39
2023/03/06 06:03:38;;;;;;;2.88;1.60;;;1.10;99.90;;;;;;5071964;28;20185;-44
2023/03/06 06:06:05;;;;;;;3.13;1.90;;;1.00;99.90;;;;;;5072285;28;20047;-43
2023/03/06 06:08:32;;;;;;;2.40;1.50;;;1.00;99.90;;;;;;5072500;28;20052;-41
2023/03/06 06:10:57;;;;;;;3.17;1.60;;;1.00;99.90;;;;;;5073090;28;20040;-36
2023/03/06 06:13:23;;;;;;;2.60;1.60;;;0.80;99.90;;;;;;5072113;28;20418;-40
2023/03/06 06:15:49;;;;;;;2.53;1.60;;;0.80;99.90;;;;;;5071425;28;20079;-41
2023/03/06 06:18:14;;;;;;;3.20;1.70;;;0.80;99.90;;;;;;5070837;28;20060;-37
2023/03/06 06:20:40;;;;;;;2.88;1.83;;;0.90;99.90;;;;;;5072971;28;20076;-39
2023/03/06 06:23:05;;;;;;;4.43;1.88;;;0.90;99.90;;;;;;5072313;28;20868;-44
2023/03/06 06:25:32;;;;;;;3.42;2.30;;;0.90;99.90;;;;;;5073001;28;20054;-42
2023/03/06 06:27:57;;;;;;;4.68;2.42;;;1.00;99.90;;;;;;5072014;28;20491;-46
2023/03/06 06:30:23;;;;;;;4.15;2.13;;;0.90;99.90;;;;;;5071876;28;20052;-38
2023/03/06 06:32:49;;;;;;;3.17;2.13;;;1.00;99.90;;;;;;5059192;28;20045;-42
2023/03/06 06:35:15;;;;;;;2.50;1.58;;;0.90;99.90;;;;;;5065149;28;20052;-42
2023/03/06 06:37:41;;;;;;;2.95;1.70;;;1.00;99.90;;;;;;5040701;28;20110;-39
2023/03/06 06:40:08;;;;;;;2.70;1.50;;;1.00;99.90;;;;;;5046136;28;20097;-38
2023/03/06 06:42:35;;;;;;;2.78;1.65;;;0.90;99.90;;;;;;5064766;28;20514;-39
2023/03/06 06:45:02;;;;;;;3.80;2.03;;;0.90;99.90;;;;;;5076003;28;20105;-36
2023/03/06 06:47:28;;;;;;;4.88;1.70;;;0.80;99.90;;;;;;5076832;28;20087;-37
2023/03/06 06:49:55;;;;;;;2.97;1.65;;;0.90;99.90;;;;;;5074251;28;20270;-37
2023/03/06 06:52:21;;;;;;;3.00;1.80;;;1.00;99.90;;;;;;5064488;28;20131;-45
2023/03/06 06:54:47;;;;;;;2.80;2.10;;;1.00;99.90;;;;;;5069163;28;20084;-41
2023/03/06 06:57:13;;;;;;;5.13;2.10;;;1.10;99.90;;;;;;5051003;28;20044;-38
2023/03/06 06:59:38;;;;;;;2.58;1.90;;;1.10;99.90;;;;;;5060424;28;20398;-45
2023/03/06 07:02:04;;;;;;;3.13;2.13;;;1.10;99.90;;;;;;5076560;28;20459;-43
2023/03/06 07:04:30;;;;;;;6.22;2.10;;;1.20;99.90;;;;;;5076125;28;20044;-42
2023/03/06 07:06:56;;;;;;;5.30;1.80;;;1.10;99.90;;;;;;5075638;28;20316;-41
2023/03/06 07:09:22;;;;;;;2.70;1.80;;;1.20;99.90;;;;;;5055606;28;20071;-41
2023/03/06 07:11:47;;;;;;;4.20;2.20;;;1.20;99.90;;;;;;5069943;28;20047;-38
2023/03/06 07:14:13;;;;;;;3.58;1.58;;;1.20;99.90;;;;;;5075837;28;20063;-35
2023/03/06 07:16:39;;;;;;;2.65;1.70;;;1.50;99.90;;;;;;5076273;28;20090;-41
2023/03/06 07:19:05;;;;;;;3.25;1.73;;;1.80;99.90;;;;;;5076088;28;20222;-46
2023/03/06 07:21:31;;;;;;;4.88;2.00;;;2.00;99.90;;;;;;5062660;28;20049;-40
2023/03/06 07:23:57;;;;;;;4.82;2.67;;;2.30;99.90;;;;;;5074271;28;20055;-40
2023/03/06 07:26:27;;;;;;;4.00;2.05;;;2.30;99.90;;;;;;5075147;28;20181;-41
2023/03/06 07:28:53;;;;;;;2.92;2.13;;;2.40;99.90;;;;;;5055778;28;20647;-40
2023/03/06 07:31:21;;;;;;;3.13;2.25;;;2.50;99.90;;;;;;5070647;28;20050;-40
2023/03/06 07:33:50;;;;;;;3.28;2.45;;;2.50;99.90;;;;;;5075582;28;20122;-41
2023/03/06 07:36:17;;;;;;;3.05;2.20;;;2.60;99.90;;;;;;5072377;28;20236;-39
2023/03/06 07:38:42;;;;;;;3.50;2.05;;;2.70;99.90;;;;;;5040534;28;20424;-38
2023/03/06 07:41:12;;;;;;;3.75;2.17;;;2.90;99.90;;;;;;5060359;28;20044;-43
2023/03/06 07:43:42;;;;;;;4.10;1.50;;;3.00;99.90;;;;;;5054879;28;20076;-41
2023/03/06 07:46:09;;;;;;;2.63;1.80;;;3.30;99.90;;;;;;5055827;28;20451;-42
2023/03/06 07:48:37;;;;;;;2.08;1.30;;;3.50;99.90;;;;;;5055944;28;20048;-43
2023/03/06 07:51:05;;;;;;;2.58;1.80;;;3.70;99.90;;;;;;5060003;28;20231;-39
2023/03/06 07:53:31;;;;;;;4.45;1.48;;;3.90;99.90;;;;;;5051987;28;20080;-40
2023/03/06 07:55:57;;;;;;;2.58;1.23;;;4.00;99.90;;;;;;5052785;28;20040;-47
2023/03/06 07:58:23;;;;;;;2.22;1.05;;;4.20;99.90;;;;;;5054031;28;20056;-42
2023/03/06 08:00:48;;;;;;;3.42;1.70;;;4.40;99.90;;;;;;5053918;28;20041;-40
2023/03/06 08:03:15;;;;;;;2.97;1.55;;;4.40;99.90;;;;;;5054115;28;20052;-47
2023/03/06 08:05:40;;;;;;;2.67;1.30;;;4.50;99.90;;;;;;5055443;28;20046;-41
2023/03/06 08:08:07;;;;;;;2.78;1.10;;;4.60;99.90;;;;;;5055526;28;20044;-44
2023/03/06 08:10:32;;;;;;;3.25;1.13;;;4.70;99.90;;;;;;5058825;28;20147;-43
2023/03/06 08:12:58;;;;;;;1.40;1.05;;;4.70;99.90;;;;;;5044473;28;20111;-40
2023/03/06 08:15:24;;;;;;;1.95;1.23;;;4.60;99.90;;;;;;5040259;28;20041;-39
2023/03/06 08:17:49;;;;;;;3.92;1.23;;;4.70;99.90;;;;;;5043196;28;20507;-40
2023/03/06 08:20:17;;;;;;;2.72;1.00;;;4.80;99.90;;;;;;5047473;28;20151;-43
2023/03/06 08:22:43;;;;;;;3.28;1.27;;;4.80;99.90;;;;;;5040454;28;20076;-44
2023/03/06 08:25:09;;;;;;;3.83;1.45;;;4.90;99.90;;;;;;5040629;28;20052;-44
2023/03/06 08:27:35;;;;;;;4.10;1.02;;;4.90;99.90;;;;;;5034938;28;20045;-40
2023/03/06 08:30:01;;;;;;;5.63;1.45;;;5.00;99.90;;;;;;5043959;28;20098;-38
2023/03/06 08:32:27;;;;;;;2.10;1.00;;;5.10;99.90;;;;;;5053370;28;20055;-41
2023/03/06 08:34:53;;;;;;;1.65;0.82;;;5.10;99.90;;;;;;5051780;28;20055;-43
2023/03/06 08:37:19;;;;;;;2.42;1.10;;;5.20;99.90;;;;;;5053807;28;20044;-44
2023/03/06 08:39:44;;;;;;;2.42;1.17;;;5.20;99.90;;;;;;5040724;28;20048;-37
2023/03/06 08:42:10;;;;;;;3.03;1.20;;;5.20;99.90;;;;;;5073452;28;20051;-41
2023/03/06 08:44:36;;;;;;;3.25;1.00;;;5.20;99.90;;;;;;5073196;28;20058;-40
2023/03/06 08:47:03;;;;;;;1.83;0.82;;;5.10;99.90;;;;;;5073840;28;20514;-41
2023/03/06 08:49:28;;;;;;;3.47;1.25;;;5.10;99.90;;;;;;5071612;28;20145;-37
2023/03/06 08:51:54;;;;;;;2.75;0.93;;;5.10;99.90;;;;;;5070876;28;20044;-38
2023/03/06 08:54:20;;;;;;;4.03;1.23;;;5.30;99.90;;;;;;5050144;28;20055;-40
2023/03/06 08:56:46;;;;;;;11.50;2.85;;;5.20;99.90;;;;;;5049134;28;20136;-44
2023/03/06 08:59:12;;;;;;;4.35;1.42;;;5.30;99.90;;;;;;5051721;28;20139;-43
2023/03/06 09:01:38;;;;;;;5.05;1.00;;;5.40;99.90;;;;;;5053498;28;20430;-43
2023/03/06 09:04:07;;;;;;;3.38;1.30;;;5.40;99.90;;;;;;5051992;28;20052;-45
2023/03/06 09:06:36;;;;;;;11.10;9.98;;;5.50;99.90;;;;;;5052500;28;20102;-40
2023/03/06 09:09:03;;;;;;;5.25;2.00;;;5.60;99.90;;;;;;5052693;28;20506;-41
2023/03/06 09:11:30;;;;;;;5.20;1.80;;;5.70;99.90;;;;;;5054131;28;20071;-45
2023/03/06 09:13:56;;;;;;;5.40;1.63;;;5.80;99.90;;;;;;5052898;28;20153;-38
2023/03/06 09:16:22;;;;;;;7.32;1.55;;;6.00;99.90;;;;;;5052028;28;20104;-42
2023/03/06 09:18:51;;;;;;;2.42;1.08;;;6.10;99.90;;;;;;5052052;28;20051;-41
2023/03/06 09:21:18;;;;;;;4.78;1.48;;;6.20;99.90;;;;;;5053073;28;20048;-41
2023/03/06 09:23:44;;;;;;;2.97;1.00;;;6.30;99.90;;;;;;5052644;28;20548;-37
2023/03/06 09:26:10;;;;;;;4.03;1.50;;;6.40;99.90;;;;;;5053196;28;20459;-44
2023/03/06 09:28:38;;;;;;;15.95;13.88;;;6.30;99.90;;;;;;5052636;28;20053;-39
2023/03/06 09:31:11;;;;;;;5.20;1.83;;;6.20;99.90;;;;;;5053524;28;20441;-36
2023/03/06 09:33:37;;;;;;;;;;;6.20;99.90;;;;;;5052364;28;20441;-42
2023/03/06 09:36:03;;;;;;;5.22;1.63;;;6.30;99.90;;;;;;5052143;28;19931;-43
2023/03/06 09:38:29;;;;;;;5.75;2.83;;;6.20;99.90;;;;;;5047251;28;20049;-37
2023/03/06 09:40:58;;;;;;;4.88;2.25;;;6.20;99.90;;;;;;5072481;28;20058;-45
2023/03/06 09:43:44;;;;;;;6.03;1.60;;;6.30;99.90;;;;;;5058142;28;20055;-38
2023/03/06 09:46:23;;;;;;;6.07;2.55;;;6.50;99.90;;;;;;5059995;28;20048;-46
2023/03/06 09:49:11;;;;;;;5.95;2.75;;;6.60;99.90;;;;;;5052643;28;20135;-36
2023/03/06 09:52:02;;;;;;;5.05;3.63;;;6.80;99.90;;;;;;5054539;28;20921;-43
2023/03/06 09:54:42;;;;;;;5.20;1.52;;;6.80;99.90;;;;;;5027320;28;20072;-37
2023/03/06 09:57:34;;;;;;;3.95;1.90;;;6.70;99.90;;;;;;5029175;28;20537;-43
2023/03/06 10:00:06;;;;;;;4.38;2.03;;;6.50;99.90;;;;;;5019463;28;20520;-44
2023/03/06 10:02:40;;;;;;;3.03;1.45;;;6.30;99.90;;;;;;5046252;28;20049;-45
2023/03/06 10:05:13;;;;;;;4.80;1.48;;;6.30;99.90;;;;;;5049672;28;20065;-44
2023/03/06 10:07:44;;;;;;;;;;;6.30;99.90;;;;;;5049297;28;20131;-45
2023/03/06 10:10:22;;;;;;;3.35;1.20;;;6.40;99.90;;;;;;5035616;28;19935;-42
2023/03/06 10:13:19;;;;;;;2.88;1.05;;;6.50;99.90;;;;;;5049259;28;20462;-39
2023/03/06 10:15:47;;;;;;;4.15;0.95;;;6.80;99.90;;;;;;5051625;28;20052;-44
2023/03/06 10:18:13;;;;;;;4.53;1.02;;;6.90;99.90;;;;;;5058082;28;20083;-39
2023/03/06 10:20:58;;;;;;;5.35;1.17;;;7.10;99.90;;;;;;5038847;28;20495;-45
2023/03/06 10:23:50;;;;;;;3.80;1.00;;;7.30;99.90;;;;;;5051009;28;20056;-41
2023/03/06 10:26:24;;;;;;;4.85;1.63;;;7.40;99.90;;;;;;5053410;28;20067;-46
2023/03/06 10:28:55;;;;;;;;;;;7.40;99.90;;;;;;5053266;28;20049;-40
2023/03/06 10:31:26;;;;;;;6.55;1.05;;;7.40;99.90;;;;;;5062285;28;20174;-40
2023/03/06 10:34:11;;;;;;;2.38;0.98;;;7.40;99.90;;;;;;5076766;28;20058;-47
2023/03/06 10:36:36;;;;;;;4.03;1.30;;;7.40;99.90;;;;;;5071927;28;20051;-46
2023/03/06 10:39:12;;;;;;;4.97;1.05;;;7.50;99.90;;;;;;5046307;28;20483;-48
2023/03/06 10:41:38;;;;;;;2.10;0.70;;;7.60;99.90;;;;;;5073070;28;20052;-47
2023/03/06 10:44:04;;;;;;;4.18;0.90;;;7.70;99.90;;;;;;5076647;28;20052;-41
2023/03/06 10:46:43;;;;;;;4.40;1.00;;;7.80;99.90;;;;;;5076624;28;20414;-40
2023/03/06 10:49:30;;;;;;;5.13;1.00;;;7.60;99.90;;;;;;5075868;28;20093;-50
2023/03/06 10:52:08;;;;;;;3.42;0.98;;;7.50;99.90;;;;;;5072515;28;20048;-38
2023/03/06 10:54:38;;;;;;;4.70;0.80;;;7.50;99.90;;;;;;5054142;28;20048;-43
2023/03/06 10:57:27;;;;;;;3.67;0.98;;;7.60;99.90;;;;;;5051088;28;20086;-41
2023/03/06 10:59:54;;;;;;;3.50;0.80;;;7.60;99.90;;;;;;5044332;28;20052;-42
2023/03/06 11:02:25;;;;;;;2.97;0.88;;;7.60;99.90;;;;;;5055782;28;20044;-42
2023/03/06 11:04:52;;;;;;;2.47;0.80;;;7.40;99.90;;;;;;5065752;28;20159;-35
2023/03/06 11:07:19;;;;;;;3.25;0.60;;;7.50;99.90;;;;;;5075088;28;20048;-43
2023/03/06 11:09:57;;;;;;;4.45;0.75;;;7.60;99.90;;;;;;5065984;28;20067;-38
2023/03/06 11:12:25;;;;;;;3.22;0.75;;;7.90;99.90;;;;;;5074362;28;20490;-44
2023/03/06 11:15:13;;;;;;;2.85;0.80;;;8.00;99.90;;;;;;5076215;28;20094;-39
2023/03/06 11:18:19;;;;;;;4.03;0.73;;;8.30;99.90;;;;;;5053129;28;20113;-43
2023/03/06 11:20:44;;;;;;;6.20;2.70;;;8.40;99.90;;;;;;5071670;28;20120;-38
2023/03/06 11:23:23;;;;;;;2.80;0.95;;;8.60;99.90;;;;;;5074757;28;20056;-40
2023/03/06 11:26:15;;;;;;;6.63;3.53;;;8.40;99.90;;;;;;5075619;28;20139;-45
2023/03/06 11:29:11;;;;;;;31.08;21.83;;;8.30;99.90;;;;;;5060433;28;20056;-47
2023/03/06 11:31:51;;;;;;;23.42;16.20;;;8.10;99.90;;;;;;5057651;28;20052;-45
2023/03/06 11:34:45;;;;;;;8.13;2.83;;;7.90;99.90;;;;;;5056268;28;20045;-45
2023/03/06 11:37:16;;;;;;;15.02;7.93;;;7.90;99.90;;;;;;5054782;28;20060;-40
2023/03/06 11:40:03;;;;;;;8.18;3.33;;;7.80;99.90;;;;;;5054072;28;20132;-44
2023/03/06 11:42:36;;;;;;;13.95;7.10;;;7.60;99.90;;;;;;5053340;28;20045;-37
2023/03/06 11:45:25;;;;;;;10.15;5.63;;;7.50;99.90;;;;;;5055161;28;20060;-38
2023/03/06 11:48:08;;;;;;;10.23;4.30;;;7.40;99.90;;;;;;5054731;28;20048;-41
2023/03/06 11:50:50;;;;;;;5.05;2.10;;;7.30;99.90;;;;;;5055824;28;20554;-43
2023/03/06 11:53:19;;;;;;;3.47;1.70;;;7.30;99.90;;;;;;5052940;28;20503;-36
2023/03/06 11:55:58;;;;;;;6.07;1.55;;;7.30;99.90;;;;;;5051393;28;20033;-38
2023/03/06 11:58:37;;;;;;;4.03;1.50;;;7.50;99.90;;;;;;5053666;28;20105;-42
2023/03/06 12:01:16;;;;;;;8.48;3.60;;;7.80;99.90;;;;;;5071763;28;20521;-47
2023/03/06 12:04:05;;;;;;;3.80;1.63;;;8.00;99.90;;;;;;5072853;28;20421;-46
2023/03/06 12:07:01;;;;;;;2.90;0.90;;;8.20;99.90;;;;;;5065392;28;20464;-42
2023/03/06 12:09:59;;;;;;;2.33;0.82;;;8.20;99.90;;;;;;5051023;28;20135;-39
2023/03/06 12:12:47;;;;;;;3.13;1.13;;;8.20;99.90;;;;;;5044655;28;20049;-42
2023/03/06 12:15:31;;;;;;;2.45;0.70;;;8.20;99.90;;;;;;5044849;28;20392;-43
2023/03/06 12:18:33;;;;;;;0.75;0.30;;;8.30;99.90;;;;;;5031786;28;20573;-44
2023/03/06 12:21:05;;;;;;;2.42;0.68;;;8.10;99.90;;;;;;5050188;28;20060;-42
2023/03/06 12:23:31;;;;;;;2.50;0.82;;;8.00;99.90;;;;;;5032961;28;20048;-41
2023/03/06 12:26:00;;;;;;;3.42;0.50;;;7.90;99.90;;;;;;5050120;28;20048;-44
2023/03/06 12:29:11;;;;;;;3.50;0.60;;;7.90;99.90;;;;;;5049830;28;20064;-36
2023/03/06 12:31:54;;;;;;;7.38;2.72;;;7.70;99.90;;;;;;5046782;28;20051;-43
2023/03/06 12:34:27;;;;;;;8.80;4.85;;;7.70;99.90;;;;;;5034010;28;20076;-46
2023/03/06 12:37:13;;;;;;;;;;;7.90;99.90;;;;;;5044599;28;20045;-41
2023/03/06 12:39:44;;;;;;;3.63;1.30;;;8.00;99.90;;;;;;5031746;28;19920;-45
2023/03/06 12:42:35;;;;;;;2.90;1.42;;;8.10;99.90;;;;;;5051185;28;20105;-42
2023/03/06 12:45:22;;;;;;;3.90;0.90;;;8.10;99.90;;;;;;5050687;28;20044;-37
2023/03/06 12:47:53;;;;;;;4.50;2.10;;;8.10;99.90;;;;;;5074075;28;20052;-42
2023/03/06 12:50:31;;;;;;;4.05;0.93;;;8.20;99.90;;;;;;5074157;28;20044;-43
2023/03/06 12:53:01;;;;;;;10.50;1.75;;;8.10;99.90;;;;;;5056703;28;20464;-46
2023/03/06 12:55:43;;;;;;;6.20;2.47;;;8.10;99.90;;;;;;5057863;28;20187;-42
2023/03/06 12:58:27;;;;;;;5.30;1.58;;;8.20;99.90;;;;;;5040773;28;20364;-46
2023/03/06 13:00:56;;;;;;;2.95;1.20;;;8.20;99.90;;;;;;5057235;28;20126;-44
2023/03/06 13:03:43;;;;;;;2.38;0.73;;;8.00;99.90;;;;;;5072309;28;20084;-42
2023/03/06 13:06:22;;;;;;;4.20;1.70;;;8.00;99.90;;;;;;5040668;28;20048;-45
2023/03/06 13:09:17;;;;;;;6.03;1.65;;;8.10;99.90;;;;;;5055154;28;20055;-40
2023/03/06 13:12:22;;;;;;;3.28;0.70;;;8.10;99.90;;;;;;5072792;28;20438;-42